Time;durP1;ratioP1;P1;durP2;ratioP2;P2;SDS_P1;SDS_P2;PMS_P1;PMS_P2;Temp;Humidity;BMP_temperature;BMP_pressure;BME280_temperature;BME280_humidity;BME280_pressure;Samples;Min_cycle;Max_cycle;Signal;HPM_P1;HPM_P2
2022/09/06 00:01:16;;;;;;;11.52;4.43;;;;;;;22.50;74.73;101104.28;5063620;28;20051;-74
2022/09/06 00:03:43;;;;;;;13.48;4.20;;;;;;;22.53;74.13;101103.34;5063494;28;20048;-74
2022/09/06 00:06:14;;;;;;;11.90;4.45;;;;;;;22.54;73.72;101098.47;5066786;28;20049;-74
2022/09/06 00:08:43;;;;;;;8.98;4.45;;;;;;;22.51;74.73;101105.06;5064925;28;21094;-75
2022/09/06 00:11:09;;;;;;;12.20;4.00;;;;;;;22.49;74.62;101107.56;5063521;28;20511;-72
2022/09/06 00:13:37;;;;;;;11.55;4.05;;;;;;;22.48;75.26;101105.97;5068317;28;20053;-74
2022/09/06 00:16:10;;;;;;;9.10;4.20;;;;;;;22.47;73.94;101110.81;5070930;28;20044;-75
2022/09/06 00:18:37;;;;;;;11.98;4.38;;;;;;;22.44;75.05;101096.88;5068916;28;20072;-74
2022/09/06 00:21:14;;;;;;;9.13;4.35;;;;;;;22.41;75.37;101092.19;5070227;28;20048;-74
2022/09/06 00:23:40;;;;;;;7.80;3.88;;;;;;;22.38;75.03;101087.50;5069626;28;20052;-75
2022/09/06 00:26:07;;;;;;;11.55;4.28;;;;;;;22.38;74.92;101091.06;5070601;28;20051;-74
2022/09/06 00:28:33;;;;;;;12.20;4.63;;;;;;;22.40;75.77;101094.22;5067778;28;20048;-76
2022/09/06 00:31:30;;;;;;;11.00;4.10;;;;;;;22.36;76.54;101098.44;5068210;28;20048;-74
2022/09/06 00:33:57;;;;;;;10.70;4.25;;;;;;;22.38;75.85;101093.13;5054092;28;20055;-75
2022/09/06 00:36:23;;;;;;;14.88;4.25;;;;;;;22.40;74.70;101099.06;5069280;28;20048;-74
2022/09/06 00:38:50;;;;;;;13.38;4.40;;;;;;;22.37;76.41;101089.53;5083582;28;20055;-72
2022/09/06 00:41:16;;;;;;;11.32;4.32;;;;;;;22.40;74.58;101087.78;5069453;28;20159;-74
2022/09/06 00:43:44;;;;;;;11.95;4.57;;;;;;;22.32;75.16;101092.19;5068686;28;20496;-73
2022/09/06 00:46:22;;;;;;;12.43;4.40;;;;;;;22.28;75.68;101086.69;5068365;28;20500;-73
2022/09/06 00:48:55;;;;;;;11.20;4.40;;;;;;;22.28;76.71;101088.75;5068677;28;20147;-72
2022/09/06 00:51:25;;;;;;;10.02;4.75;;;;;;;22.27;77.03;101090.75;5068105;28;20052;-73
2022/09/06 00:53:51;;;;;;;11.13;5.35;;;;;;;22.27;75.87;101079.50;5053312;28;20159;-73
2022/09/06 00:56:18;;;;;;;13.55;4.45;;;;;;;22.26;76.74;101083.56;5065231;28;20423;-75
2022/09/06 00:58:47;;;;;;;10.50;4.20;;;;;;;22.20;78.14;101074.16;5066504;28;20055;-72
2022/09/06 01:01:14;;;;;;;8.13;4.10;;;;;;;22.16;78.28;101073.53;5067943;28;20055;-73
2022/09/06 01:03:41;;;;;;;11.40;4.50;;;;;;;22.09;79.22;101073.03;5068151;28;20068;-73
2022/09/06 01:06:17;;;;;;;8.27;4.03;;;;;;;22.06;79.40;101074.78;5069675;28;20048;-75
2022/09/06 01:08:49;;;;;;;15.38;4.65;;;;;;;21.99;79.55;101079.91;5066538;28;20040;-73
2022/09/06 01:11:21;;;;;;;9.32;3.80;;;;;;;21.69;83.39;101103.28;5065072;28;20233;-74
2022/09/06 01:14:00;;;;;;;12.65;5.00;;;;;;;21.45;84.43;101114.28;5067544;28;20055;-74
2022/09/06 01:17:02;;;;;;;9.00;4.13;;;;;;;21.37;85.78;101132.72;5067165;28;20066;-71
2022/09/06 01:19:51;;;;;;;11.50;5.10;;;;;;;21.38;84.39;101127.84;5067977;28;20056;-72
2022/09/06 01:22:57;;;;;;;12.60;5.40;;;;;;;21.35;83.92;101137.22;5067416;28;20048;-73
2022/09/06 01:25:51;;;;;;;12.32;5.18;;;;;;;21.42;83.25;101142.56;5066403;28;20052;-74
2022/09/06 01:28:40;;;;;;;10.88;4.75;;;;;;;21.37;84.55;101146.78;5066497;28;20044;-75
2022/09/06 01:31:43;;;;;;;9.70;4.88;;;;;;;21.49;83.13;101139.47;5067529;28;20062;-73
2022/09/06 01:34:36;;;;;;;17.83;5.65;;;;;;;21.56;82.82;101140.00;5067662;28;20484;-72
2022/09/06 01:37:13;;;;;;;8.88;4.47;;;;;;;21.54;83.24;101134.06;5066451;28;20473;-75
2022/09/06 01:39:40;;;;;;;14.20;5.05;;;;;;;21.52;83.20;101136.53;5066664;28;20051;-73
2022/09/06 01:42:26;;;;;;;12.45;4.93;;;;;;;21.47;84.03;101151.22;5066748;28;20098;-73
2022/09/06 01:44:58;;;;;;;13.18;6.43;;;;;;;21.48;83.36;101157.63;5067602;28;20742;-74
2022/09/06 01:47:46;;;;;;;12.63;5.57;;;;;;;21.51;83.29;101154.69;5067136;28;20135;-74
2022/09/06 01:50:31;;;;;;;10.82;5.03;;;;;;;21.56;83.00;101154.06;5066783;28;20050;-74
2022/09/06 01:53:03;;;;;;;10.53;4.27;;;;;;;21.45;85.92;101170.59;5060456;28;20045;-73
2022/09/06 01:55:57;;;;;;;15.68;5.43;;;;;;;21.40;87.04;101167.59;5067198;28;20049;-75
2022/09/06 01:58:31;;;;;;;15.07;5.32;;;;;;;21.35;87.52;101168.19;5067014;28;20416;-74
2022/09/06 02:01:06;;;;;;;12.52;5.32;;;;;;;21.45;85.42;101169.81;5066221;28;20048;-72
2022/09/06 02:03:49;;;;;;;;;;;;;;;21.36;87.04;101173.34;5065628;28;20094;-73
2022/09/06 02:06:23;;;;;;;19.92;5.90;;;;;;;21.46;84.58;101165.75;5067099;28;19930;-74
2022/09/06 02:08:56;;;;;;;18.02;6.25;;;;;;;21.53;83.71;101157.03;5067985;28;20437;-74
2022/09/06 02:11:25;;;;;;;10.68;4.63;;;;;;;21.49;83.57;101154.34;5064535;28;20048;-74
2022/09/06 02:14:01;;;;;;;10.30;4.75;;;;;;;21.53;83.20;101171.88;5067012;28;20052;-75
2022/09/06 02:16:31;;;;;;;11.75;5.22;;;;;;;21.61;81.66;101167.56;5065346;28;20067;-73
2022/09/06 02:19:16;;;;;;;14.35;4.97;;;;;;;21.62;82.65;101163.50;5066109;28;20632;-76
2022/09/06 02:21:46;;;;;;;17.70;5.50;;;;;;;21.71;81.82;101160.72;5065777;28;20680;-75
2022/09/06 02:24:20;;;;;;;16.58;4.65;;;;;;;21.73;80.88;101163.88;5067295;28;20048;-74
2022/09/06 02:26:47;;;;;;;12.35;5.05;;;;;;;21.80;80.58;101157.97;5067299;28;20053;-74
2022/09/06 02:29:15;;;;;;;12.38;4.85;;;;;;;21.85;80.37;101153.75;5067188;28;20127;-73
2022/09/06 02:31:46;;;;;;;13.15;4.50;;;;;;;21.86;80.96;101155.31;5065131;28;20052;-72
2022/09/06 02:34:16;;;;;;;13.02;4.97;;;;;;;21.85;81.67;101159.41;5066189;28;20041;-74
2022/09/06 02:36:43;;;;;;;8.50;4.22;;;;;;;21.86;81.59;101147.66;5064565;28;20056;-73
2022/09/06 02:39:11;;;;;;;15.30;4.88;;;;;;;21.93;80.20;101147.38;5066086;28;20041;-74
2022/09/06 02:41:39;;;;;;;15.10;4.38;;;;;;;22.00;80.35;101137.84;5066142;28;20056;-76
2022/09/06 02:44:06;;;;;;;11.90;4.88;;;;;;;22.02;82.86;101141.78;5066884;28;20049;-74
2022/09/06 02:46:32;;;;;;;12.50;4.75;;;;;;;22.00;84.08;101143.50;5063346;28;20134;-77
2022/09/06 02:48:59;;;;;;;15.57;5.10;;;;;;;21.94;85.24;101137.66;5064966;28;20050;-74
2022/09/06 02:51:26;;;;;;;9.85;5.35;;;;;;;21.92;85.57;101128.13;5066365;28;20052;-74
2022/09/06 02:53:52;;;;;;;12.90;5.07;;;;;;;21.88;89.11;101127.47;5065717;28;20432;-74
2022/09/06 02:56:19;;;;;;;10.93;4.97;;;;;;;21.87;87.84;101128.75;5062338;28;20087;-74
2022/09/06 02:58:45;;;;;;;14.90;4.65;;;;;;;21.91;92.77;101124.50;5065952;28;20114;-74
2022/09/06 03:01:12;;;;;;;15.10;5.20;;;;;;;21.95;93.25;101133.63;5066172;28;20055;-75
2022/09/06 03:03:38;;;;;;;11.05;4.80;;;;;;;21.91;93.98;101130.13;5066022;28;20482;-75
2022/09/06 03:06:05;;;;;;;13.10;5.30;;;;;;;21.92;96.60;101116.84;5065553;28;20675;-74
2022/09/06 03:08:33;;;;;;;14.98;5.60;;;;;;;21.87;97.87;101103.38;5066836;28;20048;-75
2022/09/06 03:11:00;;;;;;;22.60;5.80;;;;;;;21.84;100.00;101110.72;5061559;28;20066;-74
2022/09/06 03:13:27;;;;;;;11.73;5.63;;;;;;;21.83;100.00;101106.34;5065685;28;20056;-74
2022/09/06 03:15:56;;;;;;;12.27;5.72;;;;;;;21.66;100.00;101105.00;5063603;28;20044;-75
2022/09/06 03:18:24;;;;;;;17.05;5.78;;;;;;;21.55;100.00;101115.13;5063375;28;20051;-74
2022/09/06 03:20:52;;;;;;;12.55;6.22;;;;;;;21.54;100.00;101125.59;5067019;28;20441;-75
2022/09/06 03:23:21;;;;;;;13.73;5.53;;;;;;;21.48;100.00;101132.28;5065121;28;20067;-75
2022/09/06 03:25:47;;;;;;;13.85;6.00;;;;;;;21.49;100.00;101134.66;5066454;28;20056;-74
2022/09/06 03:28:14;;;;;;;12.38;6.50;;;;;;;21.44;100.00;101132.44;5062162;28;20416;-75
2022/09/06 03:30:44;;;;;;;16.65;6.82;;;;;;;21.45;100.00;101130.41;5065083;28;20083;-74
2022/09/06 03:33:11;;;;;;;13.48;5.82;;;;;;;21.41;100.00;101141.81;5065672;28;20044;-74
2022/09/06 03:35:38;;;;;;;14.57;7.15;;;;;;;21.34;100.00;101146.91;5065155;28;20048;-73
2022/09/06 03:38:04;;;;;;;14.20;5.93;;;;;;;21.25;100.00;101144.84;5063234;28;20048;-73
2022/09/06 03:40:31;;;;;;;13.18;5.97;;;;;;;21.27;100.00;101135.94;5064506;28;20505;-74
2022/09/06 03:42:57;;;;;;;12.77;6.35;;;;;;;21.33;100.00;101131.28;5065413;28;20630;-76
2022/09/06 03:45:24;;;;;;;12.48;5.88;;;;;;;21.29;100.00;101139.09;5065179;28;20056;-73
2022/09/06 03:47:50;;;;;;;14.07;5.93;;;;;;;21.36;100.00;101133.94;5062934;28;20052;-75
2022/09/06 03:50:17;;;;;;;15.70;7.15;;;;;;;21.45;100.00;101131.19;5051128;28;20067;-76
2022/09/06 03:52:43;;;;;;;14.90;6.15;;;;;;;21.52;100.00;101125.28;5065524;28;20423;-74
2022/09/06 03:55:10;;;;;;;13.02;6.32;;;;;;;21.55;100.00;101137.63;5066149;28;20044;-75
2022/09/06 03:57:37;;;;;;;12.38;6.22;;;;;;;21.48;100.00;101144.34;5064047;28;20045;-74
2022/09/06 04:00:04;;;;;;;20.40;7.15;;;;;;;21.50;100.00;101124.94;5066348;28;20379;-74
2022/09/06 04:02:30;;;;;;;19.45;7.03;;;;;;;21.44;100.00;101114.75;5062557;28;20524;-72
2022/09/06 04:04:57;;;;;;;19.05;6.95;;;;;;;21.42;100.00;101112.41;5066446;28;20159;-77
2022/09/06 04:07:24;;;;;;;18.80;7.20;;;;;;;21.41;100.00;101113.66;5068419;28;20135;-69
2022/09/06 04:09:50;;;;;;;22.08;7.60;;;;;;;21.32;100.00;101110.00;5066684;28;20075;-75
2022/09/06 04:12:17;;;;;;;16.95;8.07;;;;;;;21.29;100.00;101091.25;5066686;28;20055;-74
2022/09/06 04:14:43;;;;;;;21.33;7.30;;;;;;;21.22;100.00;101083.84;5057784;28;20454;-72
2022/09/06 04:17:11;;;;;;;18.90;7.00;;;;;;;21.16;100.00;101090.53;5064351;28;20056;-74
2022/09/06 04:19:37;;;;;;;19.70;7.15;;;;;;;20.92;100.00;101109.13;5065646;28;20053;-74
2022/09/06 04:22:04;;;;;;;20.13;8.05;;;;;;;20.74;100.00;101094.91;5055491;28;20420;-76
2022/09/06 04:24:30;;;;;;;19.52;8.48;;;;;;;20.78;100.00;101093.53;5065192;28;20070;-73
2022/09/06 04:26:57;;;;;;;22.17;9.07;;;;;;;20.85;100.00;101093.28;5064444;28;20135;-75
2022/09/06 04:29:23;;;;;;;20.67;9.35;;;;;;;20.92;100.00;101097.88;5065233;28;20408;-73
2022/09/06 04:31:50;;;;;;;17.58;9.48;;;;;;;20.91;100.00;101097.06;5064190;28;20063;-71
2022/09/06 04:34:18;;;;;;;18.20;8.63;;;;;;;20.95;100.00;101097.00;5066092;28;20140;-70
2022/09/06 04:36:45;;;;;;;26.23;10.38;;;;;;;20.98;100.00;101113.72;5063297;28;20397;-74
2022/09/06 04:39:14;;;;;;;23.67;8.73;;;;;;;20.90;100.00;101112.38;5059977;28;20048;-73
2022/09/06 04:41:41;;;;;;;23.40;8.98;;;;;;;20.91;100.00;101113.16;5065229;28;20509;-74
2022/09/06 04:44:08;;;;;;;21.58;9.18;;;;;;;20.87;100.00;101121.75;5063166;28;20185;-74
2022/09/06 04:46:34;;;;;;;21.35;9.80;;;;;;;20.85;100.00;101137.50;5063776;28;20044;-74
2022/09/06 04:49:01;;;;;;;21.48;10.07;;;;;;;20.79;100.00;101151.34;5058822;28;20425;-74
2022/09/06 04:51:27;;;;;;;22.60;10.43;;;;;;;20.82;100.00;101156.06;5064318;28;20048;-74
2022/09/06 04:53:54;;;;;;;21.25;10.02;;;;;;;20.82;100.00;101150.44;5065155;28;20045;-72
2022/09/06 04:56:24;;;;;;;17.45;8.68;;;;;;;20.88;100.00;101164.69;5064698;28;20060;-73
2022/09/06 04:58:52;;;;;;;25.95;10.40;;;;;;;20.92;100.00;101160.53;5065128;28;20048;-73
2022/09/06 05:01:19;;;;;;;27.02;11.20;;;;;;;20.95;100.00;101162.44;5066307;28;20044;-72
2022/09/06 05:03:46;;;;;;;21.38;8.82;;;;;;;20.96;100.00;101157.63;5068192;28;20072;-72
2022/09/06 05:06:19;;;;;;;20.77;8.93;;;;;;;20.96;100.00;101155.56;5068252;28;20048;-73
2022/09/06 05:08:46;;;;;;;22.88;9.80;;;;;;;20.91;100.00;101153.31;5067306;28;20135;-73
2022/09/06 05:11:12;;;;;;;22.25;10.02;;;;;;;20.92;100.00;101162.56;5067143;28;20044;-72
2022/09/06 05:13:39;;;;;;;22.73;10.25;;;;;;;20.93;100.00;101164.94;5068151;28;20050;-73
2022/09/06 05:16:07;;;;;;;20.80;10.25;;;;;;;20.95;100.00;101165.25;5068232;28;20058;-73
2022/09/06 05:18:34;;;;;;;23.70;10.55;;;;;;;20.98;100.00;101169.19;5066253;28;20049;-71
2022/09/06 05:21:01;;;;;;;20.20;10.00;;;;;;;20.97;100.00;101170.44;5069096;28;20056;-75
2022/09/06 05:23:28;;;;;;;21.25;9.50;;;;;;;20.96;100.00;101160.44;5066783;28;20052;-73
2022/09/06 05:25:54;;;;;;;18.73;10.35;;;;;;;20.96;100.00;101160.44;5069266;28;20041;-69
2022/09/06 05:28:21;;;;;;;22.30;10.10;;;;;;;20.97;100.00;101151.53;5065726;28;20040;-72
2022/09/06 05:30:48;;;;;;;21.30;9.88;;;;;;;20.96;100.00;101141.50;5067126;28;20052;-73
2022/09/06 05:33:20;;;;;;;21.80;10.18;;;;;;;20.97;100.00;101143.09;5068365;28;20497;-72
2022/09/06 05:35:47;;;;;;;21.10;10.23;;;;;;;20.93;100.00;101128.38;5064895;28;20060;-73
2022/09/06 05:38:14;;;;;;;19.40;9.00;;;;;;;20.89;100.00;101132.53;5067084;28;20041;-73
2022/09/06 05:40:41;;;;;;;20.13;9.90;;;;;;;20.90;100.00;101129.25;5067986;28;20143;-75
2022/09/06 05:43:07;;;;;;;18.00;9.57;;;;;;;20.89;100.00;101132.53;5059745;28;20045;-73
2022/09/06 05:45:34;;;;;;;21.70;9.55;;;;;;;20.90;100.00;101122.84;5065687;28;20128;-72
2022/09/06 05:48:00;;;;;;;18.23;9.27;;;;;;;20.86;100.00;101119.38;5065689;28;20131;-72
2022/09/06 05:50:27;;;;;;;20.88;8.50;;;;;;;20.89;100.00;101129.72;5067473;28;20516;-75
2022/09/06 05:52:53;;;;;;;18.15;8.57;;;;;;;20.92;100.00;101115.50;5060742;28;20044;-76
2022/09/06 05:55:20;;;;;;;22.08;8.73;;;;;;;20.93;100.00;101117.13;5067517;28;20056;-75
2022/09/06 05:57:46;;;;;;;23.00;8.50;;;;;;;20.91;100.00;101108.31;5069149;28;20560;-77
2022/09/06 06:00:13;;;;;;;16.05;7.70;;;;;;;20.88;100.00;101102.81;5064099;28;20055;-76
2022/09/06 06:02:40;;;;;;;21.27;8.38;;;;;;;20.85;100.00;101101.72;5056796;28;20144;-72
2022/09/06 06:05:07;;;;;;;19.25;8.60;;;;;;;20.85;100.00;101103.75;5061882;28;20095;-75
2022/09/06 06:07:33;;;;;;;18.80;8.07;;;;;;;20.85;100.00;101115.00;5066481;28;20131;-76
2022/09/06 06:10:00;;;;;;;18.83;7.85;;;;;;;20.94;100.00;101126.34;5067225;28;20059;-75
2022/09/06 06:12:26;;;;;;;17.70;7.68;;;;;;;20.96;100.00;101126.69;5065730;28;20058;-75
2022/09/06 06:14:53;;;;;;;25.27;8.65;;;;;;;20.88;100.00;101137.38;5062017;28;20055;-76
2022/09/06 06:17:19;;;;;;;19.35;8.73;;;;;;;20.86;100.00;101136.25;5066620;28;20063;-75
2022/09/06 06:19:46;;;;;;;18.02;7.88;;;;;;;20.85;100.00;101137.50;5069591;28;20520;-76
2022/09/06 06:22:12;;;;;;;17.15;8.15;;;;;;;20.83;100.00;101139.97;5066963;28;20600;-76
2022/09/06 06:24:39;;;;;;;17.00;8.63;;;;;;;20.89;100.00;101141.75;5069508;28;20139;-75
2022/09/06 06:27:05;;;;;;;17.75;8.23;;;;;;;20.92;100.00;101131.63;5069360;28;20049;-78
2022/09/06 06:29:32;;;;;;;19.40;8.45;;;;;;;20.97;100.00;101131.84;5068839;28;20045;-77
2022/09/06 06:31:58;;;;;;;18.33;8.23;;;;;;;21.08;100.00;101131.44;5066811;28;20048;-76
2022/09/06 06:34:25;;;;;;;20.42;8.18;;;;;;;21.19;100.00;101131.84;5068255;28;20052;-75
2022/09/06 06:36:51;;;;;;;16.15;7.90;;;;;;;21.27;100.00;101135.94;5060993;28;20135;-76
2022/09/06 06:39:18;;;;;;;22.23;8.98;;;;;;;21.32;100.00;101130.50;5060478;28;20045;-75
2022/09/06 06:41:45;;;;;;;21.23;9.90;;;;;;;21.36;100.00;101136.75;5064678;28;20067;-72
2022/09/06 06:44:11;;;;;;;22.60;8.82;;;;;;;21.35;100.00;101143.66;5065964;28;20121;-71
2022/09/06 06:46:38;;;;;;;21.98;10.30;;;;;;;21.38;100.00;101136.31;5068126;28;20048;-72
2022/09/06 06:49:05;;;;;;;20.08;10.10;;;;;;;21.45;100.00;101139.63;5065209;28;20058;-72
2022/09/06 06:51:35;;;;;;;19.67;9.63;;;;;;;21.53;100.00;101131.69;5067782;28;20078;-71
2022/09/06 06:54:03;;;;;;;18.50;9.13;;;;;;;21.59;100.00;101130.63;5068481;28;20050;-72
2022/09/06 06:56:31;;;;;;;22.20;9.00;;;;;;;21.68;100.00;101124.25;5063367;28;20049;-71
2022/09/06 06:59:00;;;;;;;18.02;9.43;;;;;;;21.73;100.00;101129.31;5054344;28;20128;-71
2022/09/06 07:01:28;;;;;;;21.23;10.60;;;;;;;21.78;100.00;101123.06;5055630;28;20500;-71
2022/09/06 07:03:57;;;;;;;17.65;8.80;;;;;;;21.84;100.00;101121.97;5059661;28;20429;-72
2022/09/06 07:06:26;;;;;;;23.83;9.15;;;;;;;21.91;100.00;101121.69;5051958;28;20049;-75
2022/09/06 07:09:14;;;;;;;18.42;8.85;;;;;;;22.01;100.00;101116.88;5062056;28;20148;-71
2022/09/06 07:11:40;;;;;;;20.70;8.43;;;;;;;22.08;100.00;101127.84;5056037;28;20791;-70
2022/09/06 07:14:07;;;;;;;21.08;8.20;;;;;;;22.17;100.00;101125.06;5067938;28;20048;-73
2022/09/06 07:16:34;;;;;;;26.30;8.52;;;;;;;22.27;100.00;101126.63;5067504;28;20505;-73
2022/09/06 07:19:00;;;;;;;19.67;8.20;;;;;;;22.36;100.00;101121.78;5059029;28;20048;-73
2022/09/06 07:21:27;;;;;;;19.88;8.05;;;;;;;22.45;100.00;101123.84;5064434;28;20048;-73
2022/09/06 07:24:04;;;;;;;22.73;8.82;;;;;;;22.54;100.00;101126.66;5003332;28;20568;-74
2022/09/06 07:26:32;;;;;;;19.80;9.18;;;;;;;22.64;100.00;101125.41;4996669;28;20511;-72
2022/09/06 07:29:00;;;;;;;21.02;8.63;;;;;;;22.73;100.00;101131.06;4996041;28;20068;-73
2022/09/06 07:31:28;;;;;;;20.40;8.50;;;;;;;22.82;100.00;101131.06;4994181;28;20050;-72
2022/09/06 07:34:16;;;;;;;19.30;9.13;;;;;;;22.88;100.00;101129.16;5002755;28;20050;-71
2022/09/06 07:36:43;;;;;;;25.17;8.45;;;;;;;22.97;100.00;101136.84;4995098;28;20060;-71
2022/09/06 07:39:09;;;;;;;17.38;8.63;;;;;;;23.07;100.00;101133.53;4993309;28;20038;-72
2022/09/06 07:41:36;;;;;;;19.38;7.78;;;;;;;23.19;100.00;101128.97;5013614;28;20139;-72
2022/09/06 07:44:02;;;;;;;19.55;8.80;;;;;;;23.30;100.00;101126.47;5052647;28;20045;-72
2022/09/06 07:46:29;;;;;;;19.05;8.38;;;;;;;23.44;100.00;101134.25;5066502;28;20055;-72
2022/09/06 07:48:55;;;;;;;18.10;7.45;;;;;;;23.55;100.00;101128.91;5064886;28;20416;-76
2022/09/06 07:51:22;;;;;;;16.73;7.53;;;;;;;23.65;100.00;101125.56;5055973;28;20421;-77
2022/09/06 07:53:50;;;;;;;13.10;5.32;;;;;;;23.77;100.00;101118.91;5064365;28;20487;-77
2022/09/06 07:56:32;;;;;;;8.32;3.60;;;;;;;23.90;92.29;101127.97;5067371;28;20087;-73
2022/09/06 07:58:59;;;;;;;10.98;4.22;;;;;;;24.11;87.90;101123.31;5067140;28;20072;-71
2022/09/06 08:01:34;;;;;;;6.38;2.75;;;;;;;24.29;84.76;101111.88;5064289;28;20056;-73
2022/09/06 08:04:04;;;;;;;5.07;2.50;;;;;;;24.37;76.97;101111.00;5062569;28;21177;-73
2022/09/06 08:06:35;;;;;;;8.25;3.00;;;;;;;24.60;81.32;101106.63;5058925;28;20432;-72
2022/09/06 08:09:21;;;;;;;10.45;3.45;;;;;;;24.75;81.65;101119.56;5054119;28;20052;-71
2022/09/06 08:11:49;;;;;;;5.43;2.95;;;;;;;24.80;75.45;101124.53;5054546;28;20574;-72
2022/09/06 08:14:16;;;;;;;4.13;1.38;;;;;;;24.85;71.79;101126.69;5058786;28;20131;-73
2022/09/06 08:16:42;;;;;;;7.40;2.72;;;;;;;25.04;70.71;101122.41;5053721;28;20143;-74
2022/09/06 08:19:11;;;;;;;8.07;2.50;;;;;;;25.19;72.91;101122.41;5064315;28;20059;-72
2022/09/06 08:21:38;;;;;;;8.77;2.35;;;;;;;25.24;67.91;101126.63;5066248;28;20058;-73
2022/09/06 08:24:06;;;;;;;9.07;2.90;;;;;;;25.38;69.32;101126.66;5065986;28;20158;-72
2022/09/06 08:26:35;;;;;;;5.88;2.28;;;;;;;25.48;67.75;101118.81;5051057;28;20485;-72
2022/09/06 08:29:05;;;;;;;6.88;2.30;;;;;;;25.58;67.40;101121.03;5058620;28;20055;-73
2022/09/06 08:31:34;;;;;;;8.27;2.00;;;;;;;25.67;65.48;101129.44;5057685;28;20045;-76
2022/09/06 08:34:02;;;;;;;5.47;2.13;;;;;;;25.81;65.95;101122.19;5061793;28;20079;-76
2022/09/06 08:36:29;;;;;;;5.35;1.70;;;;;;;25.83;62.04;101128.13;5071385;28;20091;-77
2022/09/06 08:39:04;;;;;;;2.92;1.63;;;;;;;25.89;60.86;101131.84;5068336;28;20568;-75
2022/09/06 08:41:48;;;;;;;5.30;1.95;;;;;;;25.97;60.62;101125.28;5060609;28;20155;-73
2022/09/06 08:44:31;;;;;;;5.73;2.00;;;;;;;25.97;59.04;101121.66;5069998;28;20070;-74
2022/09/06 08:47:19;;;;;;;6.78;2.20;;;;;;;26.06;58.66;101127.22;5068831;28;20051;-73
2022/09/06 08:49:49;;;;;;;8.70;2.40;;;;;;;26.19;61.22;101125.59;5061734;28;20576;-72
2022/09/06 08:52:18;;;;;;;4.13;2.05;;;;;;;26.34;60.83;101125.53;5067604;28;20044;-75
2022/09/06 08:55:08;;;;;;;3.65;2.00;;;;;;;26.33;56.72;101130.44;5059396;28;20139;-70
2022/09/06 08:57:56;;;;;;;4.05;2.15;;;;;;;26.46;57.13;101118.72;5058756;28;20098;-68
2022/09/06 09:00:23;;;;;;;3.10;1.77;;;;;;;26.60;56.89;101123.53;5058549;28;20128;-72
2022/09/06 09:03:05;;;;;;;4.82;2.10;;;;;;;26.65;54.76;101123.63;5066283;28;20051;-71
2022/09/06 09:05:35;;;;;;;5.18;2.15;;;;;;;26.86;56.81;101119.47;5060903;28;20072;-72
2022/09/06 09:08:22;;;;;;;6.28;2.13;;;;;;;26.84;53.71;101121.25;5058163;28;20056;-72
2022/09/06 09:11:02;;;;;;;4.38;2.00;;;;;;;27.03;56.44;101122.50;5052530;28;20127;-71
2022/09/06 09:13:35;;;;;;;4.70;2.00;;;;;;;27.00;52.67;101109.31;5069254;28;20492;-71
2022/09/06 09:16:01;;;;;;;8.60;1.90;;;;;;;27.21;54.25;101105.09;5046797;28;20062;-71
2022/09/06 09:18:32;;;;;;;4.00;1.77;;;;;;;27.26;50.60;101110.06;5050052;28;20084;-77
2022/09/06 09:20:59;;;;;;;6.18;1.98;;;;;;;27.50;53.28;101102.00;5045705;28;20045;-76
2022/09/06 09:23:28;;;;;;;4.63;1.67;;;;;;;27.61;52.22;101112.69;5046534;28;20052;-74
2022/09/06 09:25:59;;;;;;;4.95;1.83;;;;;;;27.64;51.51;101109.63;5049711;28;20504;-76
2022/09/06 09:28:26;;;;;;;3.90;1.88;;;;;;;27.76;48.65;101111.25;5041489;28;20135;-73
2022/09/06 09:30:55;;;;;;;7.53;1.83;;;;;;;27.96;50.53;101102.63;5049995;28;20054;-76
2022/09/06 09:33:34;;;;;;;5.32;1.83;;;;;;;27.98;48.46;101100.06;5044953;28;20051;-78
2022/09/06 09:36:06;;;;;;;4.97;1.48;;;;;;;27.98;46.45;101100.06;5045420;28;20056;-75
2022/09/06 09:38:41;;;;;;;4.15;1.75;;;;;;;28.01;46.50;101101.88;5053068;28;20445;-74
2022/09/06 09:41:22;;;;;;;6.05;1.70;;;;;;;28.04;47.65;101091.56;5043567;28;20059;-74
2022/09/06 09:43:56;;;;;;;5.13;2.03;;;;;;;28.08;46.94;101092.09;5049103;28;20047;-72
2022/09/06 09:46:31;;;;;;;4.03;1.58;;;;;;;28.16;46.89;101088.25;5043756;28;20071;-74
2022/09/06 09:49:09;;;;;;;4.55;1.65;;;;;;;28.34;47.19;101087.06;5047835;28;20060;-73
2022/09/06 09:51:38;;;;;;;3.58;1.80;;;;;;;28.42;45.41;101082.41;5048839;28;20059;-73
2022/09/06 09:54:11;;;;;;;3.50;1.48;;;;;;;28.47;45.34;101081.69;5046348;28;20045;-73
2022/09/06 09:56:42;;;;;;;3.15;1.70;;;;;;;28.33;44.20;101080.56;5048669;28;20048;-75
2022/09/06 09:59:19;;;;;;;1.50;1.33;;;;;;;28.27;43.84;101076.91;5048775;28;20659;-79
2022/09/06 10:01:46;;;;;;;2.38;0.80;;;;;;;28.34;44.21;101073.59;5037185;28;20773;-72
2022/09/06 10:04:21;;;;;;;2.45;1.42;;;;;;;28.62;44.64;101068.03;5034143;28;20048;-73
2022/09/06 10:07:16;;;;;;;2.03;1.23;;;;;;;28.57;43.49;101071.63;5047886;28;20059;-74
2022/09/06 10:09:59;;;;;;;5.78;1.50;;;;;;;28.62;42.54;101060.22;5048503;28;20054;-75
2022/09/06 10:12:28;;;;;;;1.63;1.33;;;;;;;28.69;41.98;101065.47;5043585;28;20744;-75
2022/09/06 10:14:56;;;;;;;2.95;1.52;;;;;;;28.99;42.82;101065.75;5048129;28;20524;-70
2022/09/06 10:17:36;;;;;;;3.95;1.30;;;;;;;29.04;41.63;101068.63;5045402;28;20052;-76
2022/09/06 10:20:12;;;;;;;3.20;1.25;;;;;;;29.21;41.88;101060.09;5042068;28;20923;-70
2022/09/06 10:22:48;;;;;;;3.22;1.65;;;;;;;29.29;41.54;101061.91;5046960;28;20925;-70
2022/09/06 10:25:33;;;;;;;5.78;1.75;;;;;;;29.27;41.62;101067.34;5049798;28;20306;-71
2022/09/06 10:28:26;;;;;;;2.13;1.30;;;;;;;29.35;41.01;101059.03;5046818;28;20432;-71
2022/09/06 10:30:56;;;;;;;7.10;1.27;;;;;;;29.25;41.08;101060.59;5044035;28;20122;-70
2022/09/06 10:34:04;;;;;;;4.63;1.92;;;;;;;29.50;41.63;101056.72;5044562;28;20244;-71
2022/09/06 10:36:43;;;;;;;5.55;1.42;;;;;;;29.87;41.92;101047.84;5031989;28;20480;-69
2022/09/06 10:39:22;;;;;;;7.88;1.45;;;;;;;30.06;41.00;101038.19;5044935;28;20049;-73
2022/09/06 10:42:03;;;;;;;5.55;1.45;;;;;;;30.30;40.81;101049.00;5048422;28;20497;-73
2022/09/06 10:45:06;;;;;;;3.85;0.98;;;;;;;30.36;39.38;101046.88;5047353;28;20044;-72
2022/09/06 10:47:54;;;;;;;4.20;1.10;;;;;;;30.55;38.61;101036.41;5046077;28;20171;-71
2022/09/06 10:50:24;;;;;;;6.55;1.60;;;;;;;30.78;39.62;101047.22;5042833;28;20056;-72
2022/09/06 10:52:52;;;;;;;6.57;1.42;;;;;;;30.56;38.92;101043.66;5048051;28;20734;-72
2022/09/06 10:55:19;;;;;;;3.00;1.40;;;;;;;30.49;38.61;101045.00;5048856;28;20048;-70
2022/09/06 10:58:03;;;;;;;3.63;1.42;;;;;;;30.51;37.33;101050.19;5047677;28;20054;-73
2022/09/06 11:00:48;;;;;;;2.10;1.30;;;;;;;30.53;37.29;101036.94;5048268;28;20048;-71
2022/09/06 11:03:31;;;;;;;2.25;1.50;;;;;;;30.75;36.78;101045.41;5045018;28;20066;-72
2022/09/06 11:06:22;;;;;;;3.88;1.77;;;;;;;30.88;37.41;101045.56;5043390;28;20872;-71
2022/09/06 11:08:57;;;;;;;4.38;1.77;;;;;;;31.22;37.71;101055.41;5047758;28;20048;-71
2022/09/06 11:11:46;;;;;;;3.05;1.30;;;;;;;31.17;36.93;101052.59;5046959;28;20057;-70
2022/09/06 11:14:14;;;;;;;3.92;1.40;;;;;;;31.22;36.74;101041.13;5050243;28;20052;-72
2022/09/06 11:16:50;;;;;;;4.07;1.40;;;;;;;31.59;36.25;101041.31;5049968;28;20592;-73
2022/09/06 11:19:26;;;;;;;6.80;1.60;;;;;;;31.88;35.95;101036.88;5050498;28;20155;-73
2022/09/06 11:22:06;;;;;;;3.85;1.52;;;;;;;31.98;35.46;101044.56;5048444;28;20048;-70
2022/09/06 11:24:54;;;;;;;2.97;1.40;;;;;;;32.16;35.37;101043.06;5044560;28;20062;-72
2022/09/06 11:27:31;;;;;;;3.13;1.45;;;;;;;32.26;34.74;101038.50;5046929;28;20714;-71
2022/09/06 11:30:00;;;;;;;7.05;2.00;;;;;;;32.33;35.18;101028.56;5044340;28;20136;-71
2022/09/06 11:32:29;;;;;;;4.38;1.52;;;;;;;32.46;34.08;101045.81;5043471;28;20222;-71
2022/09/06 11:35:00;;;;;;;4.78;1.55;;;;;;;31.87;34.21;101041.84;5045042;28;20748;-72
2022/09/06 11:37:38;;;;;;;5.40;1.40;;;;;;;32.13;34.71;101041.28;5043021;28;20048;-72